Time;durP1;ratioP1;P1;durP2;ratioP2;P2;SDS_P1;SDS_P2;PMS_P1;PMS_P2;Temp;Humidity;BMP_temperature;BMP_pressure;BME280_temperature;BME280_humidity;BME280_pressure;Samples;Min_cycle;Max_cycle;Signal;HPM_P1;HPM_P2
2022/04/21 00:01:37;;;;;;;2.63;2.43;;;;;;;;;;5055514;28;20234;-76
2022/04/21 00:04:07;;;;;;;2.70;2.50;;;;;;;;;;5047770;28;20207;-75
2022/04/21 00:06:36;;;;;;;2.80;2.50;;;;;;;;;;5051963;28;20212;-76
2022/04/21 00:09:04;;;;;;;2.70;2.43;;;;;;;;;;5054526;28;20219;-76
2022/04/21 00:11:33;;;;;;;5.57;2.60;;;;;;;;;;5054354;28;20207;-75
2022/04/21 00:14:01;;;;;;;2.80;2.50;;;;;;;;;;5052936;28;20261;-75
2022/04/21 00:16:30;;;;;;;4.17;2.67;;;;;;;;;;5054030;28;20198;-76
2022/04/21 00:18:58;;;;;;;3.03;2.63;;;;;;;;;;5054083;28;20191;-76
2022/04/21 00:23:26;;;;;;;2.93;2.50;;;;;;;;;;5043912;28;20200;-76
2022/04/21 00:24:16;;;;;;;2.90;2.40;;;;;;;;;;5034015;28;20605;-76
2022/04/21 00:26:44;;;;;;;3.87;2.70;;;;;;;;;;5034456;28;20683;-76
2022/04/21 00:29:13;;;;;;;2.50;2.30;;;;;;;;;;5052624;28;20273;-75
2022/04/21 00:31:42;;;;;;;3.13;2.57;;;;;;;;;;5054212;28;20214;-75
2022/04/21 00:34:10;;;;;;;4.20;2.80;;;;;;;;;;5052889;28;20211;-75
2022/04/21 00:36:40;;;;;;;3.70;2.90;;;;;;;;;;5053484;28;20195;-76
2022/04/21 00:39:09;;;;;;;3.03;2.50;;;;;;;;;;5054168;28;20627;-76
2022/04/21 00:41:37;;;;;;;2.60;2.40;;;;;;;;;;5052082;28;20744;-76
2022/04/21 00:44:06;;;;;;;2.70;2.50;;;;;;;;;;5033738;28;20257;-77
2022/04/21 00:46:38;;;;;;;4.10;2.67;;;;;;;;;;5045724;28;20608;-77
2022/04/21 00:49:07;;;;;;;3.27;2.90;;;;;;;;;;5040351;28;20230;-76
2022/04/21 00:51:36;;;;;;;4.13;2.93;;;;;;;;;;5034096;28;20203;-76
2022/04/21 00:54:07;;;;;;;4.37;2.80;;;;;;;;;;5034137;28;20628;-76
2022/04/21 00:56:36;;;;;;;2.70;2.47;;;;;;;;;;5044891;28;20216;-76
2022/04/21 00:59:06;;;;;;;3.60;2.70;;;;;;;;;;5053286;28;20195;-76
2022/04/21 01:04:22;;;;;;;3.80;2.63;;;;;;;;;;5050666;28;20236;-76
2022/04/21 01:06:52;;;;;;;2.63;2.43;;;;;;;;;;5053295;28;20276;-76
2022/04/21 01:09:22;;;;;;;4.17;2.80;;;;;;;;;;5046205;28;20264;-76
2022/04/21 01:11:52;;;;;;;3.30;2.70;;;;;;;;;;5038515;28;20650;-76
2022/04/21 01:14:21;;;;;;;3.17;2.73;;;;;;;;;;5051849;28;20199;-76
2022/04/21 01:16:49;;;;;;;4.73;3.00;;;;;;;;;;5050437;28;20289;-77
2022/04/21 01:19:18;;;;;;;3.33;2.93;;;;;;;;;;5050937;28;20192;-76
2022/04/21 01:21:48;;;;;;;4.67;2.70;;;;;;;;;;5053862;28;20207;-76
2022/04/21 01:24:17;;;;;;;4.03;3.00;;;;;;;;;;5052858;28;20203;-76
2022/04/21 01:26:46;;;;;;;3.47;3.10;;;;;;;;;;5053348;28;20223;-76
2022/04/21 01:29:15;;;;;;;4.53;2.70;;;;;;;;;;5051920;28;20205;-76
2022/04/21 01:31:44;;;;;;;3.87;2.93;;;;;;;;;;5053154;28;20574;-76
2022/04/21 01:34:12;;;;;;;3.67;2.87;;;;;;;;;;5052991;28;20207;-76
2022/04/21 01:42:14;;;;;;;3.57;3.27;;;;;;;;;;5049237;28;20217;-76
2022/04/21 01:44:43;;;;;;;4.70;3.30;;;;;;;;;;5051544;28;20655;-76
2022/04/21 01:47:12;;;;;;;3.50;2.83;;;;;;;;;;5053160;28;20588;-76
2022/04/21 01:49:40;;;;;;;3.30;3.03;;;;;;;;;;5053612;28;20223;-76
2022/04/21 01:52:09;;;;;;;3.40;3.10;;;;;;;;;;5040490;28;20195;-76
2022/04/21 01:54:39;;;;;;;3.47;3.17;;;;;;;;;;5047586;28;20230;-75
2022/04/21 01:57:08;;;;;;;5.47;3.10;;;;;;;;;;5040580;28;20266;-75
2022/04/21 01:59:39;;;;;;;4.17;3.00;;;;;;;;;;5036859;28;20294;-75
2022/04/21 02:02:08;;;;;;;5.80;3.13;;;;;;;;;;5033641;28;20278;-75
2022/04/21 02:04:37;;;;;;;3.37;3.00;;;;;;;;;;5032662;28;20235;-75
2022/04/21 02:07:05;;;;;;;4.77;3.10;;;;;;;;;;5041435;28;20223;-75
2022/04/21 02:09:34;;;;;;;3.30;3.00;;;;;;;;;;5051932;28;20198;-75
2022/04/21 02:12:06;;;;;;;3.90;3.30;;;;;;;;;;5053507;28;20211;-75
2022/04/21 02:14:35;;;;;;;3.77;3.43;;;;;;;;;;5052229;28;20203;-75
2022/04/21 02:17:05;;;;;;;4.73;3.73;;;;;;;;;;5051557;28;20245;-75
2022/04/21 02:19:33;;;;;;;3.67;3.20;;;;;;;;;;5050621;28;20207;-75
2022/04/21 02:22:03;;;;;;;3.43;3.13;;;;;;;;;;5052486;28;20662;-75
2022/04/21 02:24:31;;;;;;;6.80;3.50;;;;;;;;;;5052170;28;20202;-75
2022/04/21 02:27:00;;;;;;;4.47;4.07;;;;;;;;;;5052114;28;20226;-75
2022/04/21 02:29:29;;;;;;;5.63;4.00;;;;;;;;;;5052934;28;20292;-75
2022/04/21 02:31:59;;;;;;;4.27;3.40;;;;;;;;;;5052200;28;20202;-75
2022/04/21 02:34:28;;;;;;;4.43;3.50;;;;;;;;;;5052804;28;20635;-75
2022/04/21 02:36:57;;;;;;;5.00;3.97;;;;;;;;;;5052882;28;20276;-75
2022/04/21 02:39:25;;;;;;;3.90;3.40;;;;;;;;;;5056214;28;20245;-75
2022/04/21 02:41:54;;;;;;;4.27;3.70;;;;;;;;;;5049120;28;20222;-75
2022/04/21 02:44:23;;;;;;;4.17;3.43;;;;;;;;;;5044673;28;20260;-75
2022/04/21 02:46:53;;;;;;;7.40;3.80;;;;;;;;;;5045377;28;20713;-75
2022/04/21 02:49:22;;;;;;;4.73;4.13;;;;;;;;;;5056969;28;20206;-75
2022/04/21 02:51:50;;;;;;;4.23;3.80;;;;;;;;;;5052234;28;20242;-75
2022/04/21 02:57:21;;;;;;;3.93;3.60;;;;;;;;;;5053223;28;20232;-75
2022/04/21 02:59:50;;;;;;;4.67;4.03;;;;;;;;;;5055720;28;20206;-75
2022/04/21 03:02:20;;;;;;;4.47;3.67;;;;;;;;;;5055608;28;20201;-75
2022/04/21 03:04:49;;;;;;;5.13;3.50;;;;;;;;;;5055743;28;20720;-75
2022/04/21 03:07:18;;;;;;;4.67;4.13;;;;;;;;;;5055141;28;20233;-74
2022/04/21 03:09:46;;;;;;;7.93;5.30;;;;;;;;;;5056382;28;20194;-75
2022/04/21 03:12:15;;;;;;;6.10;4.50;;;;;;;;;;5055289;28;20241;-75
2022/04/21 03:14:44;;;;;;;4.43;4.03;;;;;;;;;;5056600;28;20198;-75
2022/04/21 03:17:12;;;;;;;6.53;3.93;;;;;;;;;;5055512;28;20726;-75
2022/04/21 03:19:42;;;;;;;5.67;4.20;;;;;;;;;;5055717;28;20207;-75
2022/04/21 03:25:00;;;;;;;6.07;3.90;;;;;;;;;;5055243;28;20202;-74
2022/04/21 03:27:29;;;;;;;5.37;4.10;;;;;;;;;;5055022;28;20237;-75
2022/04/21 03:29:57;;;;;;;4.83;4.30;;;;;;;;;;5055416;28;20206;-75
2022/04/21 03:32:26;;;;;;;4.50;4.03;;;;;;;;;;5052122;28;20582;-75
2022/04/21 03:34:59;;;;;;;5.57;4.20;;;;;;;;;;5055146;28;20200;-75
2022/04/21 03:37:27;;;;;;;6.30;4.30;;;;;;;;;;5052372;28;20269;-75
2022/04/21 03:39:56;;;;;;;6.00;4.50;;;;;;;;;;5048488;28;20202;-75
2022/04/21 03:42:26;;;;;;;5.87;4.00;;;;;;;;;;5043619;28;20720;-75
2022/04/21 03:44:55;;;;;;;4.50;4.10;;;;;;;;;;5040886;28;20548;-75
2022/04/21 03:47:25;;;;;;;4.90;4.40;;;;;;;;;;5053158;28;20283;-75
2022/04/21 03:49:53;;;;;;;6.33;4.30;;;;;;;;;;5054340;28;20256;-74
2022/04/21 03:52:23;;;;;;;5.30;4.80;;;;;;;;;;5048429;28;20221;-74
2022/04/21 03:54:51;;;;;;;6.07;4.60;;;;;;;;;;5042297;28;20270;-74
2022/04/21 03:57:20;;;;;;;5.60;4.60;;;;;;;;;;5053061;28;20230;-74
2022/04/21 03:59:48;;;;;;;6.37;4.57;;;;;;;;;;5054224;28;20269;-74
2022/04/21 04:02:17;;;;;;;6.57;4.97;;;;;;;;;;5052045;28;20201;-73
2022/04/21 04:04:45;;;;;;;5.63;4.60;;;;;;;;;;5043194;28;20514;-74
2022/04/21 04:12:47;;;;;;;7.20;5.00;;;;;;;;;;5054788;28;20217;-74
2022/04/21 04:15:17;;;;;;;7.17;4.70;;;;;;;;;;5054386;28;20680;-75
2022/04/21 04:17:46;;;;;;;5.40;4.90;;;;;;;;;;5054059;28;20286;-75
2022/04/21 04:20:14;;;;;;;6.40;4.90;;;;;;;;;;5054542;28;20216;-75
2022/04/21 04:22:43;;;;;;;6.40;5.13;;;;;;;;;;5054568;28;20200;-75
2022/04/21 04:25:13;;;;;;;6.47;5.23;;;;;;;;;;5053862;28;20617;-75
2022/04/21 04:27:41;;;;;;;7.40;5.50;;;;;;;;;;5053259;28;20773;-75
2022/04/21 04:30:10;;;;;;;6.40;5.33;;;;;;;;;;5054477;28;20211;-75
2022/04/21 04:32:39;;;;;;;7.10;6.10;;;;;;;;;;5054205;28;20233;-76
2022/04/21 04:35:07;;;;;;;8.87;6.33;;;;;;;;;;5052219;28;20612;-76
2022/04/21 04:37:36;;;;;;;9.67;6.37;;;;;;;;;;5053504;28;20233;-75
2022/04/21 04:40:05;;;;;;;8.97;7.47;;;;;;;;;;5054043;28;20207;-75
2022/04/21 04:42:33;;;;;;;9.40;7.80;;;;;;;;;;5050386;28;20204;-75
2022/04/21 04:47:48;;;;;;;12.57;8.43;;;;;;;;;;5053409;28;20219;-75
2022/04/21 04:50:17;;;;;;;11.13;8.23;;;;;;;;;;5053483;28;20547;-75
2022/04/21 04:52:47;;;;;;;11.27;8.70;;;;;;;;;;5041874;28;20232;-76
2022/04/21 04:55:16;;;;;;;13.47;9.87;;;;;;;;;;5041250;28;20345;-75
2022/04/21 04:57:46;;;;;;;12.30;10.83;;;;;;;;;;5037799;28;20220;-75
2022/04/21 05:00:15;;;;;;;15.47;11.37;;;;;;;;;;5053154;28;20209;-75
2022/04/21 05:02:44;;;;;;;15.53;11.67;;;;;;;;;;5052637;28;20551;-75
2022/04/21 05:05:18;;;;;;;17.10;12.53;;;;;;;;;;5043471;28;20210;-75
2022/04/21 05:07:47;;;;;;;15.00;11.67;;;;;;;;;;5052591;28;20223;-75
2022/04/21 05:10:18;;;;;;;16.63;11.80;;;;;;;;;;5034337;28;20230;-76
2022/04/21 05:12:48;;;;;;;13.90;11.90;;;;;;;;;;5045630;28;20212;-75
2022/04/21 05:15:17;;;;;;;13.10;11.03;;;;;;;;;;5052166;28;20694;-76
2022/04/21 05:17:46;;;;;;;16.77;11.80;;;;;;;;;;5053114;28;20253;-75
2022/04/21 05:20:30;;;;;;;14.70;11.53;;;;;;;;;;5053029;28;20734;-75
2022/04/21 05:23:04;;;;;;;11.73;10.53;;;;;;;;;;5053294;28;20658;-76
2022/04/21 05:25:36;;;;;;;15.43;10.77;;;;;;;;;;5050694;28;20210;-75
2022/04/21 05:28:09;;;;;;;13.03;10.43;;;;;;;;;;5046092;28;20222;-76
2022/04/21 05:30:57;;;;;;;12.27;10.33;;;;;;;;;;5042414;28;20296;-75
2022/04/21 05:33:27;;;;;;;11.97;9.40;;;;;;;;;;5049445;28;20218;-76
2022/04/21 05:36:11;;;;;;;14.43;9.70;;;;;;;;;;5046626;28;20199;-75
2022/04/21 05:38:39;;;;;;;11.77;9.17;;;;;;;;;;5037858;28;20225;-75
2022/04/21 05:41:08;;;;;;;11.33;8.43;;;;;;;;;;5053605;28;20202;-75
2022/04/21 05:43:42;;;;;;;9.60;8.50;;;;;;;;;;5052501;28;20264;-75
2022/04/21 05:46:11;;;;;;;8.93;7.80;;;;;;;;;;5050031;28;20268;-76
2022/04/21 05:48:41;;;;;;;11.20;8.53;;;;;;;;;;5051010;28;20586;-76
2022/04/21 05:51:10;;;;;;;10.73;8.37;;;;;;;;;;5052510;28;20252;-75
2022/04/21 05:53:40;;;;;;;10.70;8.87;;;;;;;;;;5052808;28;20222;-75
2022/04/21 05:56:09;;;;;;;13.10;7.80;;;;;;;;;;5051942;28;20539;-75
2022/04/21 05:58:38;;;;;;;9.47;8.17;;;;;;;;;;5045582;28;20253;-75
2022/04/21 06:01:08;;;;;;;10.80;7.27;;;;;;;;;;5051139;28;20212;-75
2022/04/21 06:03:38;;;;;;;9.87;7.50;;;;;;;;;;5051081;28;20680;-75
2022/04/21 06:06:07;;;;;;;9.60;7.67;;;;;;;;;;5052162;28;20201;-75
2022/04/21 06:08:40;;;;;;;9.57;6.97;;;;;;;;;;5042866;28;20225;-75
2022/04/21 06:11:09;;;;;;;7.80;7.07;;;;;;;;;;5050253;28;20288;-75
2022/04/21 06:13:37;;;;;;;8.10;6.57;;;;;;;;;;5052365;28;20229;-75
2022/04/21 06:16:07;;;;;;;8.53;6.83;;;;;;;;;;5051628;28;20207;-75
2022/04/21 06:18:36;;;;;;;8.53;6.93;;;;;;;;;;5043183;28;20258;-76
2022/04/21 06:21:06;;;;;;;8.30;6.87;;;;;;;;;;5049269;28;20285;-75
2022/04/21 06:23:35;;;;;;;7.67;6.57;;;;;;;;;;5036335;28;20213;-75
2022/04/21 06:26:05;;;;;;;7.20;6.50;;;;;;;;;;5051985;28;20246;-75
2022/04/21 06:28:34;;;;;;;7.10;6.30;;;;;;;;;;5052283;28;20229;-75
2022/04/21 06:31:03;;;;;;;7.97;6.50;;;;;;;;;;5050360;28;20264;-74
2022/04/21 06:33:33;;;;;;;8.37;6.80;;;;;;;;;;5052087;28;20249;-76
2022/04/21 06:36:03;;;;;;;8.73;6.80;;;;;;;;;;5052538;28;20210;-76
2022/04/21 06:38:32;;;;;;;9.93;6.57;;;;;;;;;;5050134;28;20234;-76
2022/04/21 06:41:01;;;;;;;8.73;6.93;;;;;;;;;;5047954;28;20203;-76
2022/04/21 06:49:03;;;;;;;7.10;6.33;;;;;;;;;;5050352;28;20238;-75
2022/04/21 06:51:32;;;;;;;7.70;6.37;;;;;;;;;;5034231;28;20204;-75
2022/04/21 06:54:00;;;;;;;7.77;6.20;;;;;;;;;;5051546;28;20223;-76
2022/04/21 06:56:29;;;;;;;7.57;5.93;;;;;;;;;;5043842;28;20202;-75
2022/04/21 06:58:57;;;;;;;8.43;6.40;;;;;;;;;;5047039;28;20734;-75
2022/04/21 07:01:26;;;;;;;7.27;6.53;;;;;;;;;;5049127;28;20673;-76
2022/04/21 07:03:55;;;;;;;7.57;6.80;;;;;;;;;;5042666;28;20195;-75
2022/04/21 07:06:24;;;;;;;9.43;6.43;;;;;;;;;;5031985;28;20604;-76
2022/04/21 07:08:53;;;;;;;8.73;6.93;;;;;;;;;;5047544;28;20210;-75
2022/04/21 07:11:22;;;;;;;9.80;6.40;;;;;;;;;;5051485;28;20199;-75
2022/04/21 07:13:51;;;;;;;9.00;7.03;;;;;;;;;;5046986;28;20230;-75
2022/04/21 07:16:20;;;;;;;7.07;6.10;;;;;;;;;;5056332;28;20205;-75
2022/04/21 07:18:49;;;;;;;7.10;6.37;;;;;;;;;;5032067;28;20196;-75
2022/04/21 07:21:17;;;;;;;8.57;6.47;;;;;;;;;;5046177;28;20551;-75
2022/04/21 07:23:47;;;;;;;7.47;6.33;;;;;;;;;;5051386;28;20202;-75
2022/04/21 07:26:16;;;;;;;7.93;6.40;;;;;;;;;;5055105;28;20207;-75
2022/04/21 07:28:45;;;;;;;7.80;5.73;;;;;;;;;;5053873;28;20288;-75
2022/04/21 07:31:13;;;;;;;6.20;5.60;;;;;;;;;;5054471;28;20214;-75
2022/04/21 07:33:42;;;;;;;8.47;5.80;;;;;;;;;;5054385;28;20315;-75
2022/04/21 07:36:11;;;;;;;7.40;6.20;;;;;;;;;;5052779;28;20199;-76
2022/04/21 07:38:40;;;;;;;8.57;6.40;;;;;;;;;;5052418;28;20223;-75
2022/04/21 07:41:10;;;;;;;6.80;6.10;;;;;;;;;;5054038;28;20207;-75
2022/04/21 07:43:42;;;;;;;8.43;5.83;;;;;;;;;;5048522;28;20278;-75
2022/04/21 07:46:11;;;;;;;7.83;6.30;;;;;;;;;;5054914;28;20199;-76
2022/04/21 07:51:26;;;;;;;7.57;6.07;;;;;;;;;;5048332;28;20206;-76
2022/04/21 07:53:54;;;;;;;7.20;6.47;;;;;;;;;;5050688;28;20215;-75
2022/04/21 07:56:24;;;;;;;7.10;6.20;;;;;;;;;;5044927;28;20650;-75
2022/04/21 07:58:53;;;;;;;8.57;6.43;;;;;;;;;;5052256;28;20253;-76
2022/04/21 08:01:21;;;;;;;9.70;6.70;;;;;;;;;;5053521;28;20616;-76
2022/04/21 08:03:50;;;;;;;6.83;6.13;;;;;;;;;;5053497;28;20265;-76
2022/04/21 08:06:19;;;;;;;8.10;6.83;;;;;;;;;;5055231;28;20191;-76
2022/04/21 08:08:47;;;;;;;8.40;5.53;;;;;;;;;;5055857;28;20227;-76
2022/04/21 08:11:16;;;;;;;7.30;6.30;;;;;;;;;;5055388;28;20211;-76
2022/04/21 08:13:47;;;;;;;8.77;6.40;;;;;;;;;;5051673;28;20215;-76
2022/04/21 08:16:33;;;;;;;8.27;6.20;;;;;;;;;;5040146;28;20244;-76
2022/04/21 08:19:03;;;;;;;10.47;6.77;;;;;;;;;;5054911;28;20264;-75
2022/04/21 08:21:31;;;;;;;8.17;7.30;;;;;;;;;;5054343;28;20205;-75
2022/04/21 08:33:16;;;;;;;7.93;5.97;;;;;;;;;;5050341;28;20276;-76
2022/04/21 08:35:45;;;;;;;8.57;6.00;;;;;;;;;;5043129;28;20199;-76
2022/04/21 08:38:13;;;;;;;17.27;6.93;;;;;;;;;;5045813;28;20223;-76
2022/04/21 08:40:50;;;;;;;9.83;5.93;;;;;;;;;;5051495;28;20211;-76
2022/04/21 08:43:19;;;;;;;10.27;5.60;;;;;;;;;;5052155;28;20268;-76
2022/04/21 08:45:50;;;;;;;8.10;5.40;;;;;;;;;;5038947;28;20204;-76
2022/04/21 08:48:20;;;;;;;8.17;6.07;;;;;;;;;;5053833;28;20683;-76
2022/04/21 08:50:48;;;;;;;7.63;5.93;;;;;;;;;;5050538;28;20207;-75
2022/04/21 08:53:18;;;;;;;9.67;6.10;;;;;;;;;;5036235;28;20218;-76
2022/04/21 08:55:47;;;;;;;6.80;5.57;;;;;;;;;;5053071;28;20662;-76
2022/04/21 08:58:16;;;;;;;10.87;9.80;;;;;;;;;;5052747;28;20625;-76
2022/04/21 09:00:44;;;;;;;9.97;6.93;;;;;;;;;;5052700;28;20208;-76
2022/04/21 09:03:15;;;;;;;8.20;5.23;;;;;;;;;;5051184;28;20206;-75
2022/04/21 09:05:45;;;;;;;9.27;5.70;;;;;;;;;;5052841;28;20213;-76
2022/04/21 09:08:23;;;;;;;6.47;5.23;;;;;;;;;;5053349;28;20705;-76
2022/04/21 09:11:05;;;;;;;7.43;5.30;;;;;;;;;;5054506;28;20203;-76
2022/04/21 09:13:35;;;;;;;6.87;5.07;;;;;;;;;;5036533;28;20312;-77
2022/04/21 09:16:05;;;;;;;6.60;4.90;;;;;;;;;;5043975;28;20647;-76
2022/04/21 09:18:38;;;;;;;5.80;5.20;;;;;;;;;;5048775;28;20223;-76
2022/04/21 09:21:07;;;;;;;7.37;4.93;;;;;;;;;;5053889;28;20203;-76
2022/04/21 09:23:36;;;;;;;7.27;4.90;;;;;;;;;;5052341;28;20199;-77
2022/04/21 09:26:08;;;;;;;9.03;4.97;;;;;;;;;;5050797;28;20203;-77
2022/04/21 09:28:37;;;;;;;6.87;4.60;;;;;;;;;;5051978;28;20330;-76
2022/04/21 09:31:07;;;;;;;5.90;4.60;;;;;;;;;;5053217;28;20200;-77
2022/04/21 09:33:36;;;;;;;6.73;4.47;;;;;;;;;;5051469;28;20675;-76
2022/04/21 09:36:07;;;;;;;6.70;4.70;;;;;;;;;;5052539;28;20204;-77
2022/04/21 09:38:35;;;;;;;5.67;4.73;;;;;;;;;;5052139;28;20234;-77
2022/04/21 09:41:07;;;;;;;9.70;7.07;;;;;;;;;;5046096;28;20257;-77
2022/04/21 09:43:37;;;;;;;7.40;4.77;;;;;;;;;;5051144;28;20269;-77
2022/04/21 09:46:12;;;;;;;7.67;5.07;;;;;;;;;;5050683;28;20210;-76
2022/04/21 09:48:40;;;;;;;8.23;4.70;;;;;;;;;;5040307;28;20229;-77
2022/04/21 09:51:12;;;;;;;6.63;3.90;;;;;;;;;;5052553;28;20203;-77
2022/04/21 09:53:49;;;;;;;7.37;4.50;;;;;;;;;;5051894;28;20215;-77
2022/04/21 09:56:18;;;;;;;6.33;4.53;;;;;;;;;;5051092;28;20202;-78
2022/04/21 09:58:47;;;;;;;4.93;4.40;;;;;;;;;;5043317;28;20277;-77
2022/04/21 10:01:16;;;;;;;5.27;4.50;;;;;;;;;;5051819;28;20218;-76
2022/04/21 10:03:45;;;;;;;6.07;4.57;;;;;;;;;;5049436;28;20249;-76
2022/04/21 10:06:16;;;;;;;5.77;4.40;;;;;;;;;;5045502;28;20207;-76
2022/04/21 10:08:44;;;;;;;7.03;4.87;;;;;;;;;;5049838;28;20223;-77
2022/04/21 10:11:13;;;;;;;7.60;4.47;;;;;;;;;;5049127;28;20199;-77
2022/04/21 10:13:42;;;;;;;5.60;4.43;;;;;;;;;;5043229;28;20198;-77
2022/04/21 10:16:16;;;;;;;6.17;4.60;;;;;;;;;;5045417;28;20204;-76
2022/04/21 10:18:47;;;;;;;7.23;5.10;;;;;;;;;;5051598;28;20257;-76
2022/04/21 10:21:20;;;;;;;7.83;5.13;;;;;;;;;;5048513;28;20207;-76
2022/04/21 10:23:49;;;;;;;5.20;4.70;;;;;;;;;;5042200;28;20264;-76
2022/04/21 10:26:35;;;;;;;5.73;4.57;;;;;;;;;;5038675;28;20204;-76
2022/04/21 10:29:13;;;;;;;4.87;4.43;;;;;;;;;;5049045;28;20686;-76
2022/04/21 10:31:51;;;;;;;5.60;5.03;;;;;;;;;;5040186;28;20191;-76
2022/04/21 10:34:34;;;;;;;6.63;4.83;;;;;;;;;;5039033;28;20675;-76
2022/04/21 10:37:12;;;;;;;5.83;4.77;;;;;;;;;;5035908;28;20233;-76
2022/04/21 10:39:41;;;;;;;5.97;4.87;;;;;;;;;;5039966;28;20294;-76
2022/04/21 10:42:13;;;;;;;6.47;4.97;;;;;;;;;;5042459;28;20666;-76
2022/04/21 10:44:43;;;;;;;7.60;4.97;;;;;;;;;;5040716;28;20681;-76
2022/04/21 10:47:31;;;;;;;8.43;5.23;;;;;;;;;;5050572;28;20227;-77
2022/04/21 10:50:25;;;;;;;5.97;4.90;;;;;;;;;;5045048;28;20211;-76
2022/04/21 10:58:49;;;;;;;6.97;5.20;;;;;;;;;;5048015;28;20694;-76
2022/04/21 11:01:22;;;;;;;6.47;5.00;;;;;;;;;;5051839;28;20203;-77
2022/04/21 11:04:10;;;;;;;5.33;4.80;;;;;;;;;;5050046;28;20211;-76
2022/04/21 11:06:40;;;;;;;6.70;4.90;;;;;;;;;;5055019;28;20261;-76
2022/04/21 11:09:10;;;;;;;6.07;4.80;;;;;;;;;;5053415;28;20658;-76
2022/04/21 11:11:48;;;;;;;6.63;4.97;;;;;;;;;;5055097;28;20211;-76
2022/04/21 11:14:31;;;;;;;6.83;4.90;;;;;;;;;;5038881;28;20195;-76
2022/04/21 11:17:00;;;;;;;7.07;5.17;;;;;;;;;;5051019;28;20224;-77
2022/04/21 11:19:33;;;;;;;7.27;5.13;;;;;;;;;;5047075;28;20229;-77
2022/04/21 11:22:03;;;;;;;5.97;5.10;;;;;;;;;;5048952;28;20195;-76
2022/04/21 11:24:46;;;;;;;7.70;4.90;;;;;;;;;;5055998;28;20179;-76
2022/04/21 11:27:16;;;;;;;6.23;5.00;;;;;;;;;;5029016;28;20280;-76
2022/04/21 11:29:45;;;;;;;6.17;4.30;;;;;;;;;;5054189;28;20280;-77
2022/04/21 11:32:16;;;;;;;6.17;4.63;;;;;;;;;;5052917;28;20242;-76
2022/04/21 11:34:58;;;;;;;6.43;4.70;;;;;;;;;;5043763;28;20224;-76
2022/04/21 11:37:44;;;;;;;7.30;4.50;;;;;;;;;;5051491;28;20215;-76
2022/04/21 11:40:20;;;;;;;6.03;4.90;;;;;;;;;;5050355;28;20608;-76
2022/04/21 11:42:50;;;;;;;6.60;4.90;;;;;;;;;;5054448;28;20215;-77
2022/04/21 11:45:19;;;;;;;5.97;5.07;;;;;;;;;;5055198;28;20199;-76
2022/04/21 11:47:47;;;;;;;5.47;4.40;;;;;;;;;;5055500;28;20223;-76
2022/04/21 11:50:20;;;;;;;5.47;4.60;;;;;;;;;;5053571;28;20281;-77
2022/04/21 11:52:52;;;;;;;4.70;4.30;;;;;;;;;;5051812;28;20203;-76
2022/04/21 11:55:23;;;;;;;5.50;4.47;;;;;;;;;;5041425;28;20219;-77
2022/04/21 11:57:53;;;;;;;8.02;5.35;;;;;;;;;;5054954;28;20618;-77
2022/04/21 12:08:44;;;;;;;6.88;4.97;;;;;;;;;;5052195;28;20260;-77
2022/04/21 12:11:18;;;;;;;4.85;4.32;;;;;;;;;;5050901;28;20203;-76
2022/04/21 12:13:48;;;;;;;8.23;4.80;;;;;;;;;;5054586;28;20206;-76
2022/04/21 12:16:36;;;;;;;5.00;4.50;;;;;;;;;;5048378;28;20227;-76
2022/04/21 12:19:15;;;;;;;5.10;4.70;;;;;;;;;;5052304;28;20234;-77
2022/04/21 12:21:44;;;;;;;6.37;4.77;;;;;;;;;;5053940;28;20659;-77
2022/04/21 12:24:16;;;;;;;5.60;4.50;;;;;;;;;;5053949;28;20204;-77
2022/04/21 12:26:54;;;;;;;5.63;4.93;;;;;;;;;;5052029;28;20223;-77
2022/04/21 12:29:24;;;;;;;6.80;4.87;;;;;;;;;;5053825;28;20207;-76
2022/04/21 12:31:55;;;;;;;7.20;4.87;;;;;;;;;;5052561;28;20207;-76
2022/04/21 12:34:24;;;;;;;6.53;4.73;;;;;;;;;;5034584;28;20225;-76
2022/04/21 12:36:54;;;;;;;5.63;4.83;;;;;;;;;;5039445;28;20223;-77
2022/04/21 12:39:22;;;;;;;5.83;4.63;;;;;;;;;;5054240;28;20211;-76
2022/04/21 12:42:11;;;;;;;7.27;4.80;;;;;;;;;;5046552;28;20296;-76
2022/04/21 12:44:43;;;;;;;6.57;4.67;;;;;;;;;;5054018;28;20675;-77
2022/04/21 12:47:15;;;;;;;5.27;4.30;;;;;;;;;;5052388;28;20306;-77
2022/04/21 12:49:54;;;;;;;5.60;4.90;;;;;;;;;;5054398;28;20198;-76
2022/04/21 12:52:34;;;;;;;5.47;4.27;;;;;;;;;;5045842;28;20199;-76
2022/04/21 12:55:05;;;;;;;5.47;4.80;;;;;;;;;;5040444;28;20539;-76
2022/04/21 12:57:33;;;;;;;5.80;5.07;;;;;;;;;;5034403;28;20231;-76
2022/04/21 13:00:04;;;;;;;5.47;4.97;;;;;;;;;;5039904;28;20245;-76
2022/04/21 13:02:32;;;;;;;6.17;4.83;;;;;;;;;;5051973;28;20203;-76
2022/04/21 13:05:01;;;;;;;7.47;4.93;;;;;;;;;;5050395;28;20199;-76
2022/04/21 13:07:30;;;;;;;7.83;4.60;;;;;;;;;;5050903;28;20223;-76
2022/04/21 13:09:59;;;;;;;7.50;5.00;;;;;;;;;;5036644;28;20213;-76
2022/04/21 13:12:30;;;;;;;6.20;4.93;;;;;;;;;;5045543;28;20199;-76
2022/04/21 13:14:58;;;;;;;5.60;4.97;;;;;;;;;;5052101;28;20191;-76
2022/04/21 13:17:29;;;;;;;6.90;5.23;;;;;;;;;;5050203;28;20238;-75
2022/04/21 13:19:57;;;;;;;6.20;4.73;;;;;;;;;;5050868;28;20206;-76
2022/04/21 13:22:25;;;;;;;5.30;4.70;;;;;;;;;;5051010;28;20206;-76
2022/04/21 13:24:53;;;;;;;8.50;4.57;;;;;;;;;;5050885;28;20199;-76
2022/04/21 13:27:23;;;;;;;6.70;4.87;;;;;;;;;;5050905;28;20219;-76
2022/04/21 13:29:53;;;;;;;6.73;5.20;;;;;;;;;;5051143;28;20218;-76
2022/04/21 13:35:16;;;;;;;6.57;5.00;;;;;;;;;;5048094;28;20211;-76
2022/04/21 13:37:44;;;;;;;8.63;5.23;;;;;;;;;;5049811;28;20230;-76
2022/04/21 13:40:13;;;;;;;8.03;5.30;;;;;;;;;;5050848;28;20296;-76
2022/04/21 13:42:42;;;;;;;7.77;5.33;;;;;;;;;;5051276;28;20256;-75
2022/04/21 13:45:11;;;;;;;5.47;4.87;;;;;;;;;;5050758;28;20210;-76
2022/04/21 13:47:57;;;;;;;6.17;4.90;;;;;;;;;;5049866;28;20261;-76
2022/04/21 13:50:26;;;;;;;8.33;4.97;;;;;;;;;;5050289;28;20667;-76
2022/04/21 13:52:54;;;;;;;7.63;4.80;;;;;;;;;;5050184;28;20219;-76
2022/04/21 13:55:23;;;;;;;6.40;4.90;;;;;;;;;;5050628;28;20205;-77
2022/04/21 13:57:52;;;;;;;5.77;5.13;;;;;;;;;;5050754;28;20234;-76
2022/04/21 14:00:24;;;;;;;6.13;4.60;;;;;;;;;;5050345;28;20211;-76
2022/04/21 14:02:52;;;;;;;6.87;4.47;;;;;;;;;;4697212;28;10000362;-77
2022/04/21 14:05:23;;;;;;;5.83;4.70;;;;;;;;;;5046895;28;20286;-76
2022/04/21 14:07:51;;;;;;;7.50;5.07;;;;;;;;;;5061943;28;20279;-77
2022/04/21 14:10:20;;;;;;;7.57;5.07;;;;;;;;;;5050316;28;20210;-76
2022/04/21 14:12:49;;;;;;;8.90;5.00;;;;;;;;;;5050882;28;20210;-76
2022/04/21 14:15:17;;;;;;;5.50;4.70;;;;;;;;;;5050345;28;20214;-77
2022/04/21 14:17:46;;;;;;;5.77;4.80;;;;;;;;;;5050494;28;20706;-76
2022/04/21 14:20:15;;;;;;;4.57;4.13;;;;;;;;;;5039437;28;20207;-77
2022/04/21 14:22:44;;;;;;;4.93;4.47;;;;;;;;;;5046360;28;20203;-76
2022/04/21 14:25:14;;;;;;;5.17;4.67;;;;;;;;;;5049968;28;20195;-76
2022/04/21 14:27:42;;;;;;;6.57;4.57;;;;;;;;;;5049848;28;20230;-76
2022/04/21 14:30:11;;;;;;;5.30;4.40;;;;;;;;;;5048138;28;20211;-76
2022/04/21 14:32:40;;;;;;;6.00;5.03;;;;;;;;;;5049774;28;20689;-76
2022/04/21 14:35:09;;;;;;;6.97;4.87;;;;;;;;;;5054264;28;20213;-77
2022/04/21 14:45:57;;;;;;;10.53;4.80;;;;;;;;;;5053667;28;20210;-75
2022/04/21 14:48:25;;;;;;;6.20;4.60;;;;;;;;;;5054489;28;20219;-76
2022/04/21 14:50:55;;;;;;;5.83;4.70;;;;;;;;;;5056065;28;20207;-77
2022/04/21 14:53:30;;;;;;;6.50;4.70;;;;;;;;;;5055192;28;20199;-76
2022/04/21 14:56:04;;;;;;;6.30;4.47;;;;;;;;;;5055010;28;20608;-76
2022/04/21 14:58:32;;;;;;;7.97;5.00;;;;;;;;;;5040313;28;20234;-76
2022/04/21 15:01:01;;;;;;;6.20;5.20;;;;;;;;;;5055891;28;20249;-76
2022/04/21 15:03:29;;;;;;;7.60;4.67;;;;;;;;;;5055677;28;20199;-76
2022/04/21 15:05:58;;;;;;;5.57;4.70;;;;;;;;;;5057042;28;20188;-77
2022/04/21 15:08:26;;;;;;;6.83;4.47;;;;;;;;;;5056113;28;20223;-77
2022/04/21 15:10:55;;;;;;;6.67;4.67;;;;;;;;;;5055372;28;20200;-76
2022/04/21 15:13:26;;;;;;;6.43;5.00;;;;;;;;;;5055178;28;20199;-76
2022/04/21 15:15:54;;;;;;;8.97;5.20;;;;;;;;;;5054439;28;20245;-76
2022/04/21 15:18:23;;;;;;;5.37;4.87;;;;;;;;;;5045387;28;20230;-76
2022/04/21 15:20:53;;;;;;;6.67;4.97;;;;;;;;;;5054996;28;20229;-76
2022/04/21 15:23:22;;;;;;;6.40;4.70;;;;;;;;;;5055278;28;20245;-76
2022/04/21 15:25:52;;;;;;;7.77;4.93;;;;;;;;;;5055903;28;20211;-76
2022/04/21 15:28:21;;;;;;;5.90;4.90;;;;;;;;;;5051869;28;21010;-76
2022/04/21 15:30:51;;;;;;;6.27;4.80;;;;;;;;;;5041848;28;20203;-76
2022/04/21 15:33:19;;;;;;;5.40;4.73;;;;;;;;;;5041358;28;20225;-76
2022/04/21 15:35:48;;;;;;;5.90;5.00;;;;;;;;;;5035172;28;20215;-76
2022/04/21 15:38:17;;;;;;;6.40;5.00;;;;;;;;;;5046613;28;20285;-76
2022/04/21 15:40:46;;;;;;;8.87;4.73;;;;;;;;;;5053862;28;20269;-76
2022/04/21 15:43:15;;;;;;;7.67;4.50;;;;;;;;;;5055560;28;20214;-76
2022/04/21 15:45:44;;;;;;;9.03;4.60;;;;;;;;;;5051703;28;20204;-76
2022/04/21 15:48:15;;;;;;;5.73;4.57;;;;;;;;;;5042843;28;20248;-76
2022/04/21 15:50:51;;;;;;;6.63;4.70;;;;;;;;;;5037801;28;20207;-77
2022/04/21 15:58:52;;;;;;;7.17;4.57;;;;;;;;;;5051657;28;20223;-76
2022/04/21 16:01:21;;;;;;;6.00;4.50;;;;;;;;;;5054296;28;20203;-76
2022/04/21 16:03:52;;;;;;;5.57;4.70;;;;;;;;;;5051569;28;20681;-76
2022/04/21 16:06:24;;;;;;;5.80;4.97;;;;;;;;;;5047905;28;20223;-77
2022/04/21 16:08:55;;;;;;;7.00;4.30;;;;;;;;;;5053970;28;20203;-76
2022/04/21 16:11:24;;;;;;;6.50;4.57;;;;;;;;;;5039401;28;20196;-76